Terminal Aerodrome Forecast
Issued by NWS Wilmington, OH

Current Version | Previous Version | Graphics & Text | Print | Product List | Glossary On
Versions: 1 2 3 4 5 6 7 8 9 10 11 12 13 14 15 16 17 18 19 20 21 22 23 24 25 26 27 28 29 30 31 32
396
FTUS41 KILN 141732
TAFDAY
TAF
KDAY 141732Z 1418/1518 05004KT 2SM -FZRA BR OVC004
     FM142200 33004KT 3SM BR OVC008
     FM150200 35005KT P6SM OVC020
     FM150800 02004KT P6SM OVC035=

USA.gov is the U.S. government's official web portal to all federal, state and local government web resources and services.